Time;durP1;ratioP1;P1;durP2;ratioP2;P2;SDS_P1;SDS_P2;PMS_P1;PMS_P2;Temp;Humidity;BMP_temperature;BMP_pressure;BME280_temperature;BME280_humidity;BME280_pressure;Samples;Min_cycle;Max_cycle;Signal;HPM_P1;HPM_P2
2021/08/27 00:00:47;;;;;;;8.13;5.27;;;11.70;99.90;;;;;;5023970;28;20183;-61
2021/08/27 00:03:13;;;;;;;8.20;5.60;;;11.60;99.90;;;;;;5015853;28;20684;-60
2021/08/27 00:05:39;;;;;;;7.90;4.80;;;11.50;99.90;;;;;;5017714;28;20180;-60
2021/08/27 00:08:05;;;;;;;7.20;5.13;;;11.50;99.90;;;;;;5013841;28;20183;-60
2021/08/27 00:10:31;;;;;;;9.30;6.30;;;11.40;99.90;;;;;;5010654;28;20190;-60
2021/08/27 00:15:28;;;;;;;7.80;5.70;;;11.30;99.90;;;;;;5048820;22;21031;-56
2021/08/27 00:17:54;;;;;;;13.10;4.77;;;11.30;99.90;;;;;;5029001;28;20468;-54
2021/08/27 00:20:19;;;;;;;10.40;5.80;;;11.30;99.90;;;;;;5032518;28;20179;-53
2021/08/27 00:22:45;;;;;;;8.50;4.60;;;11.30;99.90;;;;;;5027790;28;20210;-56
2021/08/27 00:25:11;;;;;;;10.13;4.77;;;11.30;99.90;;;;;;5033606;28;20461;-55
2021/08/27 00:27:37;;;;;;;6.87;4.53;;;11.30;99.90;;;;;;5042403;28;20782;-55
2021/08/27 00:30:03;;;;;;;9.60;4.77;;;11.30;99.90;;;;;;5038127;28;20525;-55
2021/08/27 00:32:29;;;;;;;13.60;5.03;;;11.40;99.90;;;;;;5043173;28;20180;-55
2021/08/27 00:34:54;;;;;;;8.13;4.23;;;11.40;99.90;;;;;;5040782;28;20548;-56
2021/08/27 00:37:20;;;;;;;8.43;4.47;;;11.50;99.90;;;;;;5042765;28;20603;-53
2021/08/27 00:39:46;;;;;;;13.63;4.93;;;11.50;99.90;;;;;;5035399;28;20176;-56
2021/08/27 00:42:14;;;;;;;11.10;5.43;;;11.60;99.90;;;;;;5042419;28;20167;-55
2021/08/27 00:44:40;;;;;;;10.03;4.93;;;11.60;99.90;;;;;;5041809;28;20452;-56
2021/08/27 00:47:05;;;;;;;8.97;4.80;;;11.60;99.90;;;;;;5027439;28;20448;-55
2021/08/27 00:49:32;;;;;;;11.30;4.73;;;11.50;99.90;;;;;;5044919;28;20182;-54
2021/08/27 00:51:58;;;;;;;11.73;4.93;;;11.50;99.90;;;;;;5025935;28;20178;-55
2021/08/27 00:54:25;;;;;;;10.67;4.30;;;11.40;99.90;;;;;;5041458;28;20839;-54
2021/08/27 00:56:50;;;;;;;7.43;4.57;;;11.40;99.90;;;;;;5042077;28;20731;-56
2021/08/27 00:59:17;;;;;;;7.50;4.70;;;11.40;99.90;;;;;;5043866;28;20592;-56
2021/08/27 01:01:43;;;;;;;9.57;4.40;;;11.40;99.90;;;;;;5043071;28;20168;-55
2021/08/27 01:04:10;;;;;;;7.33;4.33;;;11.40;99.90;;;;;;5039984;28;20582;-55
2021/08/27 01:06:43;;;;;;;10.60;5.43;;;11.30;99.90;;;;;;5049055;28;20431;-56
2021/08/27 01:09:17;;;;;;;9.93;4.80;;;11.30;99.90;;;;;;5030984;28;20429;-55
2021/08/27 01:11:49;;;;;;;6.20;4.43;;;11.30;99.90;;;;;;5041882;28;20446;-55
2021/08/27 01:14:23;;;;;;;8.23;4.73;;;11.20;99.90;;;;;;5044386;28;20988;-56
2021/08/27 01:17:16;;;;;;;7.27;4.60;;;11.20;99.90;;;;;;5046746;28;20480;-55
2021/08/27 01:19:56;;;;;;;7.03;4.77;;;11.20;99.90;;;;;;5025815;28;20529;-55
2021/08/27 01:22:25;;;;;;;9.00;4.83;;;11.20;99.90;;;;;;5029595;28;20464;-55
2021/08/27 01:24:55;;;;;;;8.20;4.40;;;11.10;99.90;;;;;;5045506;28;20477;-56
2021/08/27 01:27:24;;;;;;;11.80;5.53;;;11.10;99.90;;;;;;5050120;28;20440;-55
2021/08/27 01:30:05;;;;;;;7.50;4.40;;;11.10;99.90;;;;;;5043602;28;20502;-56
2021/08/27 01:32:55;;;;;;;8.97;4.70;;;11.10;99.90;;;;;;5030120;28;20432;-55
2021/08/27 01:35:24;;;;;;;7.27;4.20;;;11.10;99.90;;;;;;5045155;28;20535;-54
2021/08/27 01:37:52;;;;;;;10.77;4.73;;;11.20;99.90;;;;;;5042398;28;20462;-55
2021/08/27 01:40:20;;;;;;;6.63;4.47;;;11.20;99.90;;;;;;5046541;28;20826;-55
2021/08/27 01:42:47;;;;;;;15.43;4.60;;;11.20;99.90;;;;;;5045715;28;20918;-55
2021/08/27 01:45:17;;;;;;;10.67;5.20;;;11.20;99.90;;;;;;5047935;28;20449;-55
2021/08/27 01:47:44;;;;;;;7.87;4.77;;;11.20;99.90;;;;;;5042597;28;20437;-55
2021/08/27 01:50:12;;;;;;;7.67;4.53;;;11.20;99.90;;;;;;5046845;28;20508;-56
2021/08/27 01:52:39;;;;;;;7.03;4.03;;;11.20;99.90;;;;;;5049239;28;20499;-54
2021/08/27 01:55:07;;;;;;;13.93;4.70;;;11.20;99.90;;;;;;5028713;28;20821;-57
2021/08/27 01:57:34;;;;;;;8.70;4.27;;;11.30;99.90;;;;;;5042154;28;20630;-56
2021/08/27 02:00:00;;;;;;;9.93;4.83;;;11.30;99.90;;;;;;5042848;28;20422;-54
2021/08/27 02:02:27;;;;;;;6.63;4.20;;;11.30;99.90;;;;;;5044311;28;20436;-58
2021/08/27 02:04:58;;;;;;;10.43;4.57;;;11.40;99.90;;;;;;5046407;28;20472;-55
2021/08/27 02:07:24;;;;;;;10.63;4.67;;;11.40;99.90;;;;;;5043832;28;20430;-55
2021/08/27 02:09:54;;;;;;;8.33;4.83;;;11.40;99.90;;;;;;5028118;28;20521;-57
2021/08/27 02:12:20;;;;;;;9.73;4.37;;;11.40;99.90;;;;;;5029915;28;20659;-56
2021/08/27 02:14:49;;;;;;;8.87;4.67;;;11.40;99.90;;;;;;5044066;28;20948;-56
2021/08/27 02:17:17;;;;;;;7.60;4.80;;;11.50;99.90;;;;;;5036575;28;20472;-56
2021/08/27 02:19:43;;;;;;;9.73;5.10;;;11.40;99.90;;;;;;5041607;28;20430;-56
2021/08/27 02:22:13;;;;;;;10.13;4.50;;;11.40;99.90;;;;;;5044255;28;20459;-56
2021/08/27 02:24:53;;;;;;;9.90;5.17;;;11.40;99.90;;;;;;5022059;28;20519;-56
2021/08/27 02:27:20;;;;;;;14.57;5.10;;;11.40;99.90;;;;;;5041958;28;20922;-55
2021/08/27 02:29:50;;;;;;;6.90;4.20;;;11.40;99.90;;;;;;5038616;28;20459;-55
2021/08/27 02:32:17;;;;;;;10.23;4.53;;;11.50;99.90;;;;;;5030208;28;20495;-55
2021/08/27 02:34:45;;;;;;;8.43;5.07;;;11.50;99.90;;;;;;5029260;28;20469;-54
2021/08/27 02:37:15;;;;;;;5.30;4.10;;;11.50;99.90;;;;;;5043247;28;20957;-57
2021/08/27 02:39:41;;;;;;;10.97;5.07;;;11.50;99.90;;;;;;5042515;28;20437;-54
2021/08/27 02:42:07;;;;;;;8.43;5.30;;;11.50;99.90;;;;;;5043977;28;20465;-56
2021/08/27 02:44:33;;;;;;;8.20;5.00;;;11.50;99.90;;;;;;5045550;28;21169;-56
2021/08/27 02:46:58;;;;;;;22.87;9.50;;;11.40;99.90;;;;;;5045747;28;20445;-55
2021/08/27 02:49:24;;;;;;;16.00;4.87;;;11.40;99.90;;;;;;5045929;28;20210;-56
2021/08/27 02:52:15;;;;;;;16.63;7.33;;;11.50;99.90;;;;;;5045905;28;20631;-55
2021/08/27 02:54:49;;;;;;;8.60;5.00;;;11.50;99.90;;;;;;5041164;28;20582;-56
2021/08/27 02:57:16;;;;;;;14.87;5.80;;;11.50;99.90;;;;;;5029062;28;20464;-56
2021/08/27 02:59:43;;;;;;;6.93;4.80;;;11.50;99.90;;;;;;5043764;28;20442;-57
2021/08/27 03:02:15;;;;;;;10.67;5.37;;;11.50;99.90;;;;;;5042552;28;20571;-56
2021/08/27 03:04:50;;;;;;;10.80;5.73;;;11.50;99.90;;;;;;5057286;28;20457;-56
2021/08/27 03:07:21;;;;;;;10.40;5.10;;;11.60;99.90;;;;;;5028602;28;20444;-57
2021/08/27 03:10:22;;;;;;;16.80;6.13;;;11.60;99.90;;;;;;5042252;28;20448;-56
2021/08/27 03:13:11;;;;;;;8.57;5.37;;;11.60;99.90;;;;;;5014757;28;20917;-55
2021/08/27 03:15:48;;;;;;;11.73;5.10;;;11.60;99.90;;;;;;5025979;28;20925;-56
2021/08/27 03:18:19;;;;;;;8.87;5.30;;;11.60;99.90;;;;;;5040009;28;20466;-55
2021/08/27 03:20:51;;;;;;;9.13;4.40;;;11.60;99.90;;;;;;5045549;28;20437;-57
2021/08/27 03:23:19;;;;;;;10.27;4.90;;;11.60;99.90;;;;;;5041328;28;20426;-56
2021/08/27 03:25:47;;;;;;;9.03;6.17;;;11.60;99.90;;;;;;5044802;28;20429;-57
2021/08/27 03:28:24;;;;;;;9.87;4.73;;;11.60;99.90;;;;;;5043954;28;20759;-56
2021/08/27 03:30:51;;;;;;;12.00;5.03;;;11.60;99.90;;;;;;5034356;28;20537;-55
2021/08/27 03:33:18;;;;;;;9.97;4.60;;;11.60;99.90;;;;;;5041546;28;20523;-56
2021/08/27 03:35:48;;;;;;;8.77;5.10;;;11.60;99.90;;;;;;5044539;28;20433;-55
2021/08/27 03:38:14;;;;;;;9.00;5.83;;;11.60;99.90;;;;;;5035803;28;21099;-55
2021/08/27 03:40:42;;;;;;;10.63;5.10;;;11.60;99.90;;;;;;5040464;28;20429;-55
2021/08/27 03:43:09;;;;;;;11.70;5.47;;;11.70;99.90;;;;;;5047536;28;20783;-55
2021/08/27 03:45:35;;;;;;;12.57;5.37;;;11.70;99.90;;;;;;5044098;28;20430;-55
2021/08/27 03:48:01;;;;;;;9.00;4.90;;;11.70;99.90;;;;;;5041968;28;20506;-56
2021/08/27 03:50:28;;;;;;;11.20;5.80;;;11.70;99.90;;;;;;5044337;28;20433;-56
2021/08/27 03:52:55;;;;;;;7.97;4.27;;;11.70;99.90;;;;;;5043698;28;20518;-56
2021/08/27 03:55:21;;;;;;;10.70;4.90;;;11.70;99.90;;;;;;5027689;28;20538;-56
2021/08/27 03:57:49;;;;;;;8.57;4.63;;;11.80;99.90;;;;;;5041021;28;20465;-55
2021/08/27 04:00:21;;;;;;;8.27;5.67;;;11.80;99.90;;;;;;5041939;28;20440;-56
2021/08/27 04:02:49;;;;;;;9.90;4.90;;;11.80;99.90;;;;;;5038940;28;20453;-55
2021/08/27 04:05:20;;;;;;;11.50;5.20;;;11.80;99.90;;;;;;5043855;28;20938;-56
2021/08/27 04:07:48;;;;;;;14.87;6.17;;;11.90;99.90;;;;;;5045021;28;20498;-55
2021/08/27 04:10:16;;;;;;;21.20;6.10;;;11.90;99.90;;;;;;5041677;28;20476;-55
2021/08/27 04:12:42;;;;;;;13.97;6.10;;;11.90;99.90;;;;;;5045832;28;20429;-55
2021/08/27 04:15:10;;;;;;;13.47;6.40;;;11.90;99.90;;;;;;5046240;28;20453;-58
2021/08/27 04:17:36;;;;;;;7.90;5.70;;;11.90;99.90;;;;;;5035185;28;20461;-55
2021/08/27 04:20:04;;;;;;;12.23;5.63;;;11.90;99.90;;;;;;5038764;28;20442;-56
2021/08/27 04:22:30;;;;;;;11.93;4.70;;;11.90;99.90;;;;;;5023386;28;20565;-57
2021/08/27 04:24:55;;;;;;;12.00;6.17;;;11.90;99.90;;;;;;5042366;28;20568;-57
2021/08/27 04:27:21;;;;;;;7.90;5.90;;;11.90;99.90;;;;;;5025462;28;20241;-55
2021/08/27 04:29:47;;;;;;;8.77;5.83;;;11.90;99.90;;;;;;5042363;28;20183;-57
2021/08/27 04:32:12;;;;;;;8.37;5.20;;;11.90;99.90;;;;;;5042976;28;20225;-56
2021/08/27 04:34:38;;;;;;;11.47;5.77;;;11.90;99.90;;;;;;5044517;28;20244;-56
2021/08/27 04:37:04;;;;;;;10.53;5.20;;;11.90;99.90;;;;;;5044694;28;20196;-56
2021/08/27 04:39:29;;;;;;;9.23;5.60;;;11.90;99.90;;;;;;5043617;28;20267;-55
2021/08/27 04:41:55;;;;;;;13.40;5.33;;;11.90;99.90;;;;;;5040499;28;20392;-56
2021/08/27 04:44:21;;;;;;;8.67;5.23;;;11.90;99.90;;;;;;5050194;28;20207;-55
2021/08/27 04:46:46;;;;;;;10.03;5.30;;;11.90;99.90;;;;;;5029178;28;20190;-56
2021/08/27 04:49:12;;;;;;;12.43;5.30;;;11.90;99.90;;;;;;5030328;28;20659;-56
2021/08/27 04:51:38;;;;;;;13.93;5.80;;;11.90;99.90;;;;;;5050568;28;20928;-57
2021/08/27 04:54:03;;;;;;;14.17;5.83;;;11.90;99.90;;;;;;5047561;28;20289;-55
2021/08/27 04:56:29;;;;;;;9.97;6.67;;;11.90;99.90;;;;;;5028648;28;20199;-56
2021/08/27 04:58:55;;;;;;;16.00;6.80;;;11.90;99.90;;;;;;5050472;28;20340;-56
2021/08/27 05:01:20;;;;;;;11.07;6.40;;;11.90;99.90;;;;;;5047474;28;20167;-55
2021/08/27 05:03:46;;;;;;;21.00;6.57;;;11.90;99.90;;;;;;5045390;28;20240;-54
2021/08/27 05:06:11;;;;;;;10.90;6.33;;;12.00;99.90;;;;;;5039736;28;20249;-56
2021/08/27 05:08:37;;;;;;;16.83;6.40;;;12.00;99.90;;;;;;5057398;28;20203;-57
2021/08/27 05:11:04;;;;;;;8.83;5.93;;;12.00;99.90;;;;;;5047782;28;20253;-55
2021/08/27 05:13:29;;;;;;;10.47;7.07;;;12.00;99.90;;;;;;5048186;28;20214;-54
2021/08/27 05:15:56;;;;;;;13.03;7.53;;;12.10;99.90;;;;;;5048279;28;20449;-53
2021/08/27 05:18:22;;;;;;;14.73;7.03;;;12.10;99.90;;;;;;5045657;28;20992;-56
2021/08/27 05:20:48;;;;;;;18.13;6.70;;;12.10;99.90;;;;;;5045657;28;20309;-56
2021/08/27 05:23:13;;;;;;;15.57;6.83;;;12.10;99.90;;;;;;5030577;28;20241;-54
2021/08/27 05:25:39;;;;;;;14.30;6.70;;;12.10;99.90;;;;;;5029628;28;20262;-55
2021/08/27 05:28:05;;;;;;;14.00;7.27;;;12.20;99.90;;;;;;5049932;28;20191;-55
2021/08/27 05:30:31;;;;;;;15.83;6.37;;;12.20;99.90;;;;;;5030959;28;20193;-56
2021/08/27 05:32:57;;;;;;;10.03;6.40;;;12.20;99.90;;;;;;5045811;28;20813;-55
2021/08/27 05:35:24;;;;;;;12.43;6.33;;;12.20;99.90;;;;;;5052150;28;20261;-56
2021/08/27 05:37:50;;;;;;;10.40;6.20;;;12.30;99.90;;;;;;5049653;28;20457;-55
2021/08/27 05:40:16;;;;;;;12.57;6.90;;;12.30;99.90;;;;;;5034646;28;20528;-56
2021/08/27 05:42:42;;;;;;;8.40;5.60;;;12.30;99.90;;;;;;5046088;28;21069;-56
2021/08/27 05:45:09;;;;;;;9.43;6.40;;;12.40;99.90;;;;;;5047935;28;20469;-54
2021/08/27 05:47:36;;;;;;;12.40;6.23;;;12.30;99.90;;;;;;5030809;28;20473;-56
2021/08/27 05:50:03;;;;;;;10.63;6.03;;;12.40;99.90;;;;;;5042215;28;20503;-56
2021/08/27 05:52:29;;;;;;;11.13;6.30;;;12.40;99.90;;;;;;5043044;28;20915;-55
2021/08/27 05:54:54;;;;;;;14.63;6.80;;;12.50;99.90;;;;;;5048780;28;20523;-55
2021/08/27 05:57:20;;;;;;;7.73;5.77;;;12.50;99.90;;;;;;5048400;28;20692;-53
2021/08/27 05:59:45;;;;;;;16.20;6.83;;;12.50;99.90;;;;;;5048792;28;20179;-56
2021/08/27 06:02:11;;;;;;;12.53;6.33;;;12.50;99.90;;;;;;5047743;28;20636;-56
2021/08/27 06:04:37;;;;;;;10.43;6.63;;;12.60;99.90;;;;;;5045487;28;20203;-52
2021/08/27 06:07:03;;;;;;;10.87;6.83;;;12.60;99.90;;;;;;5047555;28;20179;-56
2021/08/27 06:09:29;;;;;;;8.17;5.97;;;12.60;99.90;;;;;;5028400;28;20179;-56
2021/08/27 06:11:54;;;;;;;12.00;6.17;;;12.60;99.90;;;;;;5046066;28;20445;-56
2021/08/27 06:14:20;;;;;;;11.03;6.67;;;12.70;99.90;;;;;;5048580;23;20680;-61
2021/08/27 06:16:46;;;;;;;11.73;7.20;;;12.70;99.90;;;;;;5026320;28;20641;-61
2021/08/27 06:19:11;;;;;;;10.47;6.70;;;12.70;99.90;;;;;;5037841;28;20183;-61
2021/08/27 06:21:39;;;;;;;10.50;6.83;;;12.70;99.90;;;;;;5037922;28;20255;-60
2021/08/27 06:24:05;;;;;;;8.57;6.30;;;12.70;99.90;;;;;;5039793;28;20168;-62
2021/08/27 06:26:31;;;;;;;13.00;6.50;;;12.70;99.90;;;;;;5039788;28;20996;-59
2021/08/27 06:28:58;;;;;;;9.13;6.20;;;12.70;99.90;;;;;;5042284;28;20529;-56
2021/08/27 06:31:25;;;;;;;17.70;10.37;;;12.70;99.90;;;;;;5029365;28;20472;-60
2021/08/27 06:33:50;;;;;;;9.37;6.43;;;12.70;99.90;;;;;;5042944;28;20429;-59
2021/08/27 06:36:16;;;;;;;9.27;6.47;;;12.80;99.90;;;;;;5028990;28;20821;-59
2021/08/27 06:38:42;;;;;;;13.77;7.10;;;12.80;99.90;;;;;;5043517;28;20171;-59
2021/08/27 06:41:08;;;;;;;20.77;6.87;;;12.80;99.90;;;;;;5023968;28;20425;-63
2021/08/27 06:43:37;;;;;;;11.70;7.07;;;12.90;99.90;;;;;;5049173;28;20175;-54
2021/08/27 06:46:16;;;;;;;10.60;6.73;;;12.90;99.90;;;;;;5038378;28;20527;-56
2021/08/27 06:48:42;;;;;;;12.30;6.77;;;13.00;99.90;;;;;;5043652;28;21085;-55
2021/08/27 06:51:08;;;;;;;12.73;7.27;;;13.00;99.90;;;;;;5043672;28;20478;-56
2021/08/27 06:53:34;;;;;;;12.23;6.50;;;13.00;99.90;;;;;;5044814;28;20528;-57
2021/08/27 06:55:59;;;;;;;9.00;6.53;;;13.10;99.90;;;;;;5040177;28;20200;-52
2021/08/27 06:58:25;;;;;;;14.73;8.30;;;13.20;99.90;;;;;;5046563;28;20289;-55
2021/08/27 07:00:51;;;;;;;9.33;6.77;;;13.20;99.90;;;;;;5040152;28;20683;-57
2021/08/27 07:03:17;;;;;;;6.53;5.73;;;13.30;99.90;;;;;;5038631;28;20582;-60
2021/08/27 07:05:42;;;;;;;12.37;6.87;;;13.30;99.90;;;;;;5039866;28;20282;-61
2021/08/27 07:08:08;;;;;;;7.80;6.37;;;13.40;99.90;;;;;;5039291;28;20306;-64
2021/08/27 07:10:34;;;;;;;8.63;6.20;;;13.50;99.90;;;;;;5047083;28;20233;-60
2021/08/27 07:13:00;;;;;;;11.03;7.13;;;13.60;99.90;;;;;;5025235;28;20426;-61
2021/08/27 07:15:26;;;;;;;10.83;7.13;;;13.60;99.90;;;;;;5035303;28;20215;-61
2021/08/27 07:17:52;;;;;;;16.90;6.70;;;13.60;99.90;;;;;;5045020;28;20466;-60
2021/08/27 07:20:18;;;;;;;11.73;6.63;;;13.60;99.40;;;;;;5042314;28;20179;-59
2021/08/27 07:22:45;;;;;;;11.60;6.80;;;13.60;99.60;;;;;;5040604;28;20183;-59
2021/08/27 07:25:11;;;;;;;19.77;6.97;;;13.70;99.20;;;;;;5040181;28;20458;-65
2021/08/27 07:27:38;;;;;;;12.80;6.97;;;13.70;99.10;;;;;;5039340;28;20425;-63
2021/08/27 07:30:05;;;;;;;14.33;6.80;;;13.70;99.20;;;;;;5017513;28;20445;-60
2021/08/27 07:32:31;;;;;;;11.13;6.57;;;13.80;98.70;;;;;;5030320;28;20429;-61
2021/08/27 07:34:57;;;;;;;13.90;7.83;;;13.90;98.50;;;;;;5039155;28;20476;-59
2021/08/27 07:37:23;;;;;;;9.27;6.87;;;13.90;97.50;;;;;;5044044;28;20198;-58
2021/08/27 07:39:48;;;;;;;11.00;7.93;;;14.00;97.40;;;;;;5017023;28;20182;-59
2021/08/27 07:42:14;;;;;;;14.10;6.87;;;14.00;97.50;;;;;;5030672;28;20255;-64
2021/08/27 07:44:40;;;;;;;11.37;8.03;;;14.10;96.90;;;;;;5036955;28;20606;-62
2021/08/27 07:47:05;;;;;;;11.90;7.30;;;14.00;96.10;;;;;;5029411;28;20236;-59
2021/08/27 07:49:31;;;;;;;13.70;7.97;;;14.00;96.50;;;;;;5034259;28;23448;-59
2021/08/27 07:51:57;;;;;;;13.93;8.20;;;14.00;97.60;;;;;;5021987;28;20187;-59
2021/08/27 07:54:23;;;;;;;14.43;7.90;;;13.90;97.80;;;;;;5041273;28;20257;-60
2021/08/27 07:56:49;;;;;;;12.73;7.13;;;13.90;98.40;;;;;;5037478;28;20226;-59
2021/08/27 07:59:15;;;;;;;14.47;7.37;;;13.90;98.30;;;;;;5044494;28;20860;-63
2021/08/27 08:01:41;;;;;;;10.47;7.10;;;14.00;98.00;;;;;;5015422;28;20198;-61
2021/08/27 08:04:06;;;;;;;10.93;7.30;;;14.00;98.00;;;;;;5039324;28;20256;-61
2021/08/27 08:06:33;;;;;;;13.83;7.40;;;14.10;97.30;;;;;;5035290;28;20183;-58
2021/08/27 08:08:59;;;;;;;10.50;7.10;;;14.10;96.20;;;;;;5029265;28;20183;-59
2021/08/27 08:11:25;;;;;;;11.70;7.20;;;14.30;96.70;;;;;;5040119;28;20426;-60
2021/08/27 08:13:50;;;;;;;11.07;6.40;;;14.50;97.10;;;;;;5039614;28;20417;-59
2021/08/27 08:16:16;;;;;;;11.50;7.63;;;14.60;95.40;;;;;;5044855;28;20498;-59
2021/08/27 08:18:42;;;;;;;12.50;7.40;;;14.70;93.50;;;;;;5038967;28;20175;-59
2021/08/27 08:21:08;;;;;;;13.80;6.23;;;14.80;92.80;;;;;;5044968;28;20235;-59
2021/08/27 08:23:34;;;;;;;13.30;6.20;;;14.80;92.30;;;;;;5046712;28;20176;-59
2021/08/27 08:26:00;;;;;;;9.93;6.20;;;14.90;91.00;;;;;;5041623;28;20460;-61
2021/08/27 08:28:26;;;;;;;13.30;6.70;;;14.90;91.60;;;;;;5039521;28;20440;-59
2021/08/27 08:30:52;;;;;;;14.73;6.67;;;14.90;91.40;;;;;;5045773;28;20430;-59
2021/08/27 08:33:19;;;;;;;11.33;6.53;;;15.00;91.20;;;;;;5041989;28;20760;-60
2021/08/27 08:35:45;;;;;;;9.47;6.10;;;15.10;90.80;;;;;;5040681;28;20502;-58
2021/08/27 08:38:11;;;;;;;12.60;6.97;;;15.40;91.60;;;;;;5045702;28;20500;-59
2021/08/27 08:40:44;;;;;;;12.03;5.93;;;15.70;91.50;;;;;;5043120;28;20434;-60
2021/08/27 08:43:16;;;;;;;8.63;5.37;;;15.90;90.20;;;;;;5041540;28;20498;-59
2021/08/27 08:45:48;;;;;;;10.10;6.60;;;16.00;86.00;;;;;;5040055;28;20945;-59
2021/08/27 08:48:17;;;;;;;11.23;5.67;;;16.00;86.40;;;;;;5023532;28;20434;-60
2021/08/27 08:50:44;;;;;;;14.73;6.30;;;16.00;85.80;;;;;;5040585;28;20555;-65
2021/08/27 08:53:11;;;;;;;16.37;6.70;;;15.90;84.60;;;;;;5039544;28;20469;-60
2021/08/27 08:55:41;;;;;;;12.83;6.30;;;15.80;80.80;;;;;;5032393;28;21174;-61
2021/08/27 08:58:08;;;;;;;11.70;6.93;;;15.70;82.80;;;;;;5053103;28;20449;-62
2021/08/27 09:00:34;;;;;;;13.17;6.80;;;15.70;82.90;;;;;;5043572;28;20455;-61
2021/08/27 09:03:00;;;;;;;10.40;6.67;;;15.60;82.70;;;;;;5033412;28;20437;-64
2021/08/27 09:05:26;;;;;;;11.70;7.07;;;15.50;83.80;;;;;;5030847;28;20587;-61
2021/08/27 09:07:53;;;;;;;12.20;6.50;;;15.40;83.80;;;;;;5040341;28;20508;-60
2021/08/27 09:10:21;;;;;;;9.37;5.67;;;15.20;83.10;;;;;;5041667;28;20172;-60
2021/08/27 09:12:48;;;;;;;12.60;6.20;;;15.10;83.60;;;;;;5014783;28;20537;-61
2021/08/27 09:15:16;;;;;;;12.70;5.80;;;15.00;83.90;;;;;;5018240;28;20520;-64
2021/08/27 09:17:47;;;;;;;8.80;6.27;;;14.90;85.60;;;;;;5020410;28;20545;-61
2021/08/27 09:20:33;;;;;;;11.93;6.23;;;14.90;88.70;;;;;;5036660;28;20457;-61
2021/08/27 09:23:02;;;;;;;11.73;5.80;;;14.90;89.30;;;;;;5017761;28;20425;-61
2021/08/27 09:25:36;;;;;;;11.73;6.47;;;14.80;87.40;;;;;;5035556;28;20453;-61
2021/08/27 09:28:06;;;;;;;11.40;6.10;;;14.70;86.60;;;;;;5017831;28;20429;-61
2021/08/27 09:30:37;;;;;;;45.03;9.80;;;14.70;88.00;;;;;;5031854;28;20433;-62
2021/08/27 09:33:22;;;;;;;14.03;5.90;;;14.90;89.10;;;;;;5034710;28;20832;-61
2021/08/27 09:36:00;;;;;;;210.20;22.60;;;15.20;87.60;;;;;;5045365;28;20457;-60
2021/08/27 09:38:34;;;;;;;11.70;5.10;;;15.70;85.30;;;;;;5042672;28;20479;-60
2021/08/27 09:41:05;;;;;;;8.30;4.77;;;16.00;79.60;;;;;;5043640;28;20414;-60
2021/08/27 09:43:50;;;;;;;8.53;4.67;;;16.30;80.20;;;;;;5028328;28;20436;-63
2021/08/27 09:46:41;;;;;;;7.83;4.50;;;16.50;75.00;;;;;;5036214;28;20448;-61
2021/08/27 09:49:27;;;;;;;9.53;4.23;;;16.40;71.40;;;;;;5045181;28;20425;-60
2021/08/27 09:51:53;;;;;;;6.77;4.80;;;16.30;70.80;;;;;;5041753;28;20508;-61
2021/08/27 09:54:28;;;;;;;6.80;4.20;;;16.20;69.40;;;;;;5038549;28;20491;-60
2021/08/27 09:56:56;;;;;;;113.03;12.90;;;16.10;71.50;;;;;;5037812;28;20487;-63
2021/08/27 09:59:42;;;;;;;5.30;3.70;;;16.00;71.60;;;;;;5038679;28;20429;-60
2021/08/27 10:02:11;;;;;;;29.27;5.67;;;15.90;69.00;;;;;;5039988;28;20452;-63
2021/08/27 10:04:52;;;;;;;45.53;6.93;;;15.80;69.80;;;;;;5042060;28;20465;-61
2021/08/27 10:07:27;;;;;;;48.10;8.30;;;15.80;71.10;;;;;;5042741;28;20448;-59
2021/08/27 10:09:53;;;;;;;4.87;3.60;;;15.90;70.60;;;;;;5024485;28;20433;-62
2021/08/27 10:12:20;;;;;;;3.57;3.27;;;16.10;73.70;;;;;;5041963;28;20436;-60
2021/08/27 10:14:46;;;;;;;4.70;3.50;;;16.40;75.20;;;;;;5038551;28;20473;-59
2021/08/27 10:17:13;;;;;;;83.23;10.10;;;16.80;72.10;;;;;;5041972;28;20453;-61
2021/08/27 10:19:39;;;;;;;9.87;3.40;;;17.20;70.70;;;;;;5034964;28;20449;-67
2021/08/27 10:22:05;;;;;;;7.90;3.90;;;17.40;67.50;;;;;;5039616;28;20795;-63
2021/08/27 10:24:31;;;;;;;4.33;3.20;;;17.60;65.70;;;;;;5040624;28;20312;-61
2021/08/27 10:26:59;;;;;;;5.63;3.43;;;17.70;64.50;;;;;;5036832;28;20220;-60
2021/08/27 10:29:26;;;;;;;4.83;3.00;;;17.80;62.10;;;;;;5039656;28;20466;-59
2021/08/27 10:31:52;;;;;;;5.30;2.83;;;18.00;63.00;;;;;;5049150;28;20503;-60
2021/08/27 10:34:38;;;;;;;3.50;2.60;;;18.30;60.10;;;;;;5042889;28;20903;-60
2021/08/27 10:37:04;;;;;;;3.47;2.33;;;18.20;58.10;;;;;;5042025;28;20460;-59
2021/08/27 10:39:36;;;;;;;8.33;2.60;;;18.10;58.20;;;;;;5043850;28;20456;-59
2021/08/27 10:42:02;;;;;;;3.03;2.70;;;18.10;57.90;;;;;;5047897;28;20171;-61
2021/08/27 10:44:49;;;;;;;5.23;2.60;;;18.00;58.10;;;;;;5038228;28;20448;-60
2021/08/27 10:47:16;;;;;;;3.83;3.13;;;18.00;59.20;;;;;;5014988;28;20433;-59
2021/08/27 10:49:45;;;;;;;6.57;2.47;;;18.10;57.00;;;;;;5022525;28;20508;-60
2021/08/27 10:52:34;;;;;;;4.30;3.57;;;18.10;56.90;;;;;;5042762;28;21121;-59
2021/08/27 10:55:03;;;;;;;3.20;2.80;;;18.10;57.40;;;;;;5041039;28;20514;-59
2021/08/27 10:57:29;;;;;;;5.40;3.10;;;18.10;56.90;;;;;;5040608;28;20971;-58
2021/08/27 10:59:59;;;;;;;128.40;12.13;;;18.00;57.80;;;;;;5024805;28;20430;-60
2021/08/27 11:02:25;;;;;;;5.80;3.03;;;17.80;57.40;;;;;;5026351;28;20422;-60
2021/08/27 11:04:51;;;;;;;3.93;2.93;;;17.80;58.90;;;;;;5040160;28;20450;-64
2021/08/27 11:07:20;;;;;;;5.20;2.80;;;17.70;57.70;;;;;;5044703;28;20183;-59
2021/08/27 11:10:18;;;;;;;11.40;3.23;;;17.60;58.50;;;;;;5036180;28;20969;-58
2021/08/27 11:12:57;;;;;;;8.67;3.30;;;18.00;58.80;;;;;;4997859;28;21024;-58
2021/08/27 11:15:30;;;;;;;7.50;3.03;;;18.30;56.90;;;;;;5046310;28;20469;-59
2021/08/27 11:18:22;;;;;;;55.80;7.30;;;18.40;54.90;;;;;;5040346;28;20459;-58
2021/08/27 11:20:50;;;;;;;9.03;3.10;;;18.50;55.50;;;;;;5048837;28;20434;-58
2021/08/27 11:23:16;;;;;;;12.40;3.83;;;18.70;55.80;;;;;;5042130;28;20505;-59
2021/08/27 11:25:57;;;;;;;4.70;2.80;;;18.90;55.90;;;;;;5045243;28;20453;-59
2021/08/27 11:28:25;;;;;;;13.77;3.40;;;19.10;54.40;;;;;;5048120;28;20435;-58
2021/08/27 11:31:00;;;;;;;21.77;5.53;;;19.30;55.10;;;;;;5047078;28;21036;-59
2021/08/27 11:33:40;;;;;;;7.23;3.20;;;19.50;56.00;;;;;;5034596;28;20778;-58
2021/08/27 11:36:07;;;;;;;5.43;3.60;;;19.30;53.80;;;;;;5021692;28;20449;-58
2021/08/27 11:38:33;;;;;;;4.67;3.30;;;18.90;53.80;;;;;;5046655;28;20882;-59
2021/08/27 11:41:00;;;;;;;9.63;4.30;;;18.60;55.10;;;;;;5045271;28;20438;-58
2021/08/27 11:43:36;;;;;;;45.90;6.60;;;18.60;56.00;;;;;;5036785;28;20422;-58
2021/08/27 11:46:04;;;;;;;57.33;8.93;;;18.80;57.00;;;;;;5041046;28;20446;-58
2021/08/27 11:48:41;;;;;;;8.60;3.77;;;19.20;57.00;;;;;;5036554;28;20995;-60
2021/08/27 11:51:15;;;;;;;5.67;3.00;;;19.50;54.30;;;;;;5028180;28;20449;-59
2021/08/27 11:53:40;;;;;;;6.40;3.17;;;19.70;55.40;;;;;;5042487;28;20434;-58
2021/08/27 11:56:06;;;;;;;46.07;6.80;;;20.00;55.20;;;;;;5043755;28;20472;-59
2021/08/27 11:58:45;;;;;;;319.83;25.17;;;20.10;52.30;;;;;;5031393;28;20199;-59
2021/08/27 12:01:28;;;;;;;6.10;2.77;;;20.20;52.80;;;;;;5044847;28;20269;-60
2021/08/27 12:03:54;;;;;;;169.53;19.63;;;20.30;50.40;;;;;;5045753;28;20402;-58
2021/08/27 12:06:25;;;;;;;35.17;5.43;;;20.20;50.30;;;;;;5046010;28;20417;-60
2021/08/27 12:08:51;;;;;;;68.03;8.30;;;20.20;51.10;;;;;;5047255;28;20531;-57
2021/08/27 12:11:29;;;;;;;11.40;2.50;;;20.20;51.70;;;;;;5043353;28;21026;-59
2021/08/27 12:13:55;;;;;;;24.83;4.97;;;19.90;49.10;;;;;;5044470;28;20426;-59
2021/08/27 12:16:21;;;;;;;5.87;2.60;;;19.50;48.10;;;;;;5043920;28;20436;-57
2021/08/27 12:18:52;;;;;;;8.83;2.90;;;19.40;48.40;;;;;;5045273;28;20190;-58
2021/08/27 12:21:19;;;;;;;3.13;2.10;;;19.50;48.60;;;;;;5042812;28;20228;-57
2021/08/27 12:24:03;;;;;;;3.30;2.10;;;19.80;48.90;;;;;;5049022;28;20425;-57
2021/08/27 12:26:30;;;;;;;3.70;2.20;;;20.10;48.30;;;;;;5045244;28;20426;-58
2021/08/27 12:28:56;;;;;;;5.47;2.13;;;20.40;48.10;;;;;;5035005;28;20850;-57
2021/08/27 12:31:22;;;;;;;3.27;2.10;;;20.80;49.00;;;;;;5039637;28;20524;-59
2021/08/27 12:33:49;;;;;;;2.00;1.80;;;21.00;49.50;;;;;;5040991;28;20436;-59
2021/08/27 12:36:18;;;;;;;15.83;3.23;;;21.00;48.20;;;;;;5039649;28;20563;-59
2021/08/27 12:38:44;;;;;;;9.03;2.20;;;20.60;47.80;;;;;;5039580;28;20587;-62
2021/08/27 12:41:18;;;;;;;2.53;2.13;;;20.40;47.10;;;;;;5041634;28;20875;-59
2021/08/27 12:43:45;;;;;;;2.40;2.13;;;20.40;47.60;;;;;;5043167;28;20171;-60
2021/08/27 12:46:31;;;;;;;2.80;2.03;;;20.40;48.80;;;;;;5045823;28;20449;-61
2021/08/27 12:49:13;;;;;;;4.03;2.17;;;20.20;48.20;;;;;;5041494;28;20503;-62
2021/08/27 12:51:40;;;;;;;6.93;2.63;;;20.20;49.50;;;;;;5043388;28;20528;-60